Time;durP1;ratioP1;P1;durP2;ratioP2;P2;SDS_P1;SDS_P2;PMS_P1;PMS_P2;Temp;Humidity;BMP_temperature;BMP_pressure;BME280_temperature;BME280_humidity;BME280_pressure;Samples;Min_cycle;Max_cycle;Signal;HPM_P1;HPM_P2
2022/08/09 00:00:20;;;;;;;1.17;1.00;;;26.30;51.80;;;;;;5046440;28;20077;-61
2022/08/09 00:02:49;;;;;;;0.88;0.88;;;26.40;51.80;;;;;;5046508;28;20049;-61
2022/08/09 00:05:19;;;;;;;1.10;0.88;;;26.40;51.80;;;;;;5045697;28;20044;-61
2022/08/09 00:08:09;;;;;;;0.90;0.90;;;26.40;51.80;;;;;;5045123;28;20142;-61
2022/08/09 00:10:57;;;;;;;1.27;1.02;;;26.40;51.80;;;;;;5045106;28;20075;-62
2022/08/09 00:13:26;;;;;;;0.95;0.80;;;26.40;51.80;;;;;;5046291;28;20045;-62
2022/08/09 00:15:57;;;;;;;0.85;0.85;;;26.30;51.80;;;;;;5046081;28;20500;-61
2022/08/09 00:18:30;;;;;;;0.60;0.60;;;26.30;51.80;;;;;;5044954;28;20136;-62
2022/08/09 00:21:05;;;;;;;1.60;1.00;;;26.30;51.80;;;;;;5045831;28;20119;-61
2022/08/09 00:23:36;;;;;;;1.73;1.00;;;26.30;51.80;;;;;;5044788;28;20136;-61
2022/08/09 00:26:25;;;;;;;1.05;0.95;;;26.30;51.80;;;;;;5030611;28;20041;-61
2022/08/09 00:29:00;;;;;;;2.15;0.82;;;26.30;51.80;;;;;;5042930;28;20049;-61
2022/08/09 00:31:28;;;;;;;0.70;0.70;;;26.30;51.80;;;;;;5045260;28;20041;-61
2022/08/09 00:34:15;;;;;;;1.25;1.23;;;26.30;52.40;;;;;;5044117;28;20051;-62
2022/08/09 00:36:46;;;;;;;1.35;1.13;;;26.30;51.80;;;;;;5045946;28;20048;-61
2022/08/09 00:39:15;;;;;;;0.93;0.93;;;26.30;51.80;;;;;;5044295;28;20044;-61
2022/08/09 00:42:02;;;;;;;0.95;0.95;;;26.30;51.80;;;;;;5045603;28;20410;-62
2022/08/09 00:44:49;;;;;;;0.75;0.75;;;26.30;52.40;;;;;;5046172;28;20073;-61
2022/08/09 00:47:19;;;;;;;0.88;0.88;;;26.30;51.90;;;;;;5044464;28;20490;-61
2022/08/09 00:49:51;;;;;;;0.70;0.70;;;26.30;51.90;;;;;;5045709;28;20110;-61
2022/08/09 00:52:21;;;;;;;0.63;0.63;;;26.30;51.90;;;;;;5045036;28;20052;-61
2022/08/09 00:54:59;;;;;;;0.63;0.63;;;26.30;51.90;;;;;;5044039;28;20045;-61
2022/08/09 00:57:29;;;;;;;0.60;0.60;;;26.30;51.90;;;;;;5044071;28;20144;-61
2022/08/09 01:00:08;;;;;;;0.90;0.90;;;26.30;51.90;;;;;;5041161;28;20245;-61
2022/08/09 01:02:56;;;;;;;0.80;0.80;;;26.30;51.90;;;;;;5045096;28;20231;-62
2022/08/09 01:05:41;;;;;;;1.05;1.05;;;26.30;51.90;;;;;;5045347;28;20482;-62
2022/08/09 01:08:45;;;;;;;0.77;0.77;;;26.30;51.90;;;;;;5045279;28;20067;-61
2022/08/09 01:11:42;;;;;;;0.60;0.60;;;26.30;51.90;;;;;;5045124;28;20049;-61
2022/08/09 01:14:34;;;;;;;1.17;0.75;;;26.30;51.90;;;;;;5044265;28;20331;-61
2022/08/09 01:17:15;;;;;;;0.70;0.70;;;26.30;51.90;;;;;;5045006;28;20082;-62
2022/08/09 01:19:58;;;;;;;0.90;0.90;;;26.20;51.90;;;;;;5043386;28;20059;-61
2022/08/09 01:23:05;;;;;;;0.93;0.93;;;26.30;51.90;;;;;;5043518;28;20284;-62
2022/08/09 01:26:24;;;;;;;0.70;0.70;;;26.20;51.90;;;;;;5045061;28;20102;-62
2022/08/09 01:28:55;;;;;;;0.98;0.90;;;26.20;51.90;;;;;;5044469;28;20052;-61
2022/08/09 01:31:29;;;;;;;0.75;0.75;;;26.20;51.90;;;;;;5040441;28;20301;-61
2022/08/09 01:34:20;;;;;;;0.95;0.77;;;26.20;51.90;;;;;;5043988;28;20080;-62
2022/08/09 01:36:48;;;;;;;0.93;0.93;;;26.20;51.90;;;;;;5044574;28;20128;-63
2022/08/09 01:39:18;;;;;;;1.02;0.80;;;26.20;51.80;;;;;;5045492;28;20041;-62
2022/08/09 01:41:50;;;;;;;0.80;0.80;;;26.30;51.90;;;;;;5044601;28;20131;-62
2022/08/09 01:44:24;;;;;;;0.80;0.80;;;26.20;51.80;;;;;;5045355;28;20045;-61
2022/08/09 01:46:52;;;;;;;2.47;1.42;;;26.20;51.80;;;;;;5043982;28;20053;-61
2022/08/09 01:49:20;;;;;;;0.98;0.98;;;26.30;51.90;;;;;;5045123;28;20049;-62
2022/08/09 01:51:58;;;;;;;1.25;1.15;;;26.20;51.80;;;;;;5044900;28;20052;-62
2022/08/09 01:54:40;;;;;;;0.63;0.63;;;26.20;51.80;;;;;;5044953;28;20049;-61
2022/08/09 01:57:19;;;;;;;0.80;0.80;;;26.20;51.80;;;;;;5044445;28;20078;-61
2022/08/09 01:59:51;;;;;;;0.95;0.88;;;26.30;51.90;;;;;;5043433;28;20048;-61
2022/08/09 02:02:29;;;;;;;1.90;0.93;;;26.30;51.90;;;;;;5039855;28;20048;-62
2022/08/09 02:05:05;;;;;;;0.70;0.70;;;26.20;51.90;;;;;;5044183;28;20144;-62
2022/08/09 02:07:52;;;;;;;0.75;0.75;;;26.20;51.90;;;;;;5044801;28;20410;-62
2022/08/09 02:10:42;;;;;;;0.40;0.40;;;26.20;51.90;;;;;;5044534;28;20139;-62
2022/08/09 02:13:20;;;;;;;0.60;0.60;;;26.20;51.90;;;;;;5043462;28;20041;-61
2022/08/09 02:15:54;;;;;;;0.70;0.70;;;26.20;51.90;;;;;;5044222;28;20060;-61
2022/08/09 02:18:25;;;;;;;0.77;0.77;;;26.20;51.90;;;;;;5042779;28;20316;-61
2022/08/09 02:21:02;;;;;;;3.10;0.90;;;26.20;51.90;;;;;;5044075;28;20355;-62
2022/08/09 02:23:39;;;;;;;0.70;0.70;;;26.20;51.90;;;;;;5043393;28;20377;-61
2022/08/09 02:26:11;;;;;;;0.70;0.70;;;26.20;51.90;;;;;;5044259;28;20045;-61
2022/08/09 02:28:57;;;;;;;0.57;0.57;;;26.20;51.90;;;;;;5043749;28;20246;-61
2022/08/09 02:31:32;;;;;;;0.60;0.60;;;26.20;51.90;;;;;;5045793;28;20055;-62
2022/08/09 02:34:09;;;;;;;0.60;0.60;;;26.20;51.90;;;;;;5042964;28;20514;-62
2022/08/09 02:36:54;;;;;;;0.60;0.60;;;26.20;51.90;;;;;;5046432;28;20284;-61
2022/08/09 02:39:28;;;;;;;0.60;0.60;;;26.20;51.90;;;;;;5048077;28;20118;-61
2022/08/09 02:42:09;;;;;;;0.77;0.77;;;26.20;51.90;;;;;;5046562;28;20326;-62
2022/08/09 02:44:47;;;;;;;0.60;0.60;;;26.20;51.90;;;;;;5047859;28;20521;-61
2022/08/09 02:47:17;;;;;;;0.80;0.80;;;26.20;51.90;;;;;;5047830;28;20200;-62
2022/08/09 02:49:56;;;;;;;1.33;0.68;;;26.20;51.90;;;;;;5047667;28;20132;-61
2022/08/09 02:52:35;;;;;;;0.85;0.70;;;26.20;52.00;;;;;;5047205;28;20045;-61
2022/08/09 02:55:06;;;;;;;0.80;0.80;;;26.20;52.00;;;;;;5047792;28;20045;-63
2022/08/09 02:57:49;;;;;;;1.05;0.80;;;26.20;52.00;;;;;;5047695;28;20041;-62
2022/08/09 03:00:39;;;;;;;1.00;1.00;;;26.20;52.00;;;;;;5046490;28;20326;-62
2022/08/09 03:03:26;;;;;;;0.77;0.77;;;26.20;52.10;;;;;;5047490;28;20160;-62
2022/08/09 03:06:16;;;;;;;0.40;0.40;;;26.20;52.10;;;;;;5043105;28;20128;-62
2022/08/09 03:08:45;;;;;;;0.75;0.63;;;26.20;52.20;;;;;;5046880;28;20044;-62
2022/08/09 03:11:16;;;;;;;0.63;0.63;;;26.20;52.20;;;;;;5047691;28;20049;-63
2022/08/09 03:14:05;;;;;;;1.10;0.73;;;26.20;52.20;;;;;;5047416;28;20044;-62
2022/08/09 03:16:33;;;;;;;0.57;0.57;;;26.20;52.30;;;;;;5047159;28;20073;-62
2022/08/09 03:19:08;;;;;;;0.47;0.47;;;26.20;52.30;;;;;;5046984;28;20091;-65
2022/08/09 03:21:56;;;;;;;2.00;0.60;;;26.30;52.40;;;;;;5047240;28;20525;-62
2022/08/09 03:24:24;;;;;;;0.50;0.50;;;26.20;52.40;;;;;;5045543;28;20137;-62
2022/08/09 03:27:12;;;;;;;0.43;0.40;;;26.20;52.40;;;;;;5033880;28;20579;-62
2022/08/09 03:29:44;;;;;;;0.90;0.68;;;26.20;52.40;;;;;;5047305;28;20040;-62
2022/08/09 03:32:30;;;;;;;0.40;0.40;;;26.20;52.40;;;;;;5048017;28;20049;-62
2022/08/09 03:34:59;;;;;;;1.60;0.50;;;26.20;52.40;;;;;;5047766;28;20068;-62
2022/08/09 03:37:27;;;;;;;0.40;0.40;;;26.20;52.30;;;;;;5044277;28;20053;-62
2022/08/09 03:40:14;;;;;;;0.70;0.70;;;26.20;52.40;;;;;;5047538;28;20059;-62
2022/08/09 03:42:44;;;;;;;0.40;0.40;;;26.20;52.30;;;;;;5047222;28;20049;-62
2022/08/09 03:45:13;;;;;;;0.95;0.70;;;26.20;52.30;;;;;;5048038;28;20300;-62
2022/08/09 03:47:42;;;;;;;0.52;0.52;;;26.20;52.30;;;;;;5045867;28;20041;-62
2022/08/09 03:50:13;;;;;;;1.45;0.60;;;26.20;52.90;;;;;;5047839;28;20045;-63
2022/08/09 03:52:56;;;;;;;2.25;0.70;;;26.20;52.30;;;;;;5031724;28;20037;-62
2022/08/09 03:55:25;;;;;;;0.60;0.60;;;26.20;52.30;;;;;;5047018;28;20123;-62
2022/08/09 03:57:56;;;;;;;0.88;0.88;;;26.20;52.30;;;;;;5047671;28;20049;-62
2022/08/09 04:00:44;;;;;;;2.60;0.73;;;26.20;52.30;;;;;;5046904;28;20146;-62
2022/08/09 04:03:15;;;;;;;0.70;0.70;;;26.20;52.30;;;;;;5047207;28;20057;-62
2022/08/09 04:06:02;;;;;;;0.60;0.60;;;26.20;52.30;;;;;;5045804;28;20525;-62
2022/08/09 04:08:31;;;;;;;1.65;0.90;;;26.20;52.30;;;;;;5042872;28;20079;-62
2022/08/09 04:10:59;;;;;;;0.68;0.68;;;26.20;52.30;;;;;;5045535;28;20053;-62
2022/08/09 04:13:28;;;;;;;2.20;0.70;;;26.20;52.30;;;;;;5047080;28;20052;-62
2022/08/09 04:16:15;;;;;;;2.42;0.70;;;26.20;52.30;;;;;;5047243;28;20472;-62
2022/08/09 04:18:47;;;;;;;0.93;0.52;;;26.30;52.30;;;;;;5046672;28;20041;-62
2022/08/09 04:21:17;;;;;;;;;;;26.20;52.20;;;;;;5046878;28;20528;-62
2022/08/09 04:23:44;;;;;;;0.40;0.40;;;26.20;52.20;;;;;;5046753;28;20057;-62
2022/08/09 04:26:24;;;;;;;1.73;0.87;;;26.30;52.30;;;;;;5046656;28;20052;-62
2022/08/09 04:29:04;;;;;;;0.90;0.60;;;26.30;52.30;;;;;;5047047;28;20336;-62
2022/08/09 04:31:40;;;;;;;1.00;0.70;;;26.30;52.20;;;;;;5046725;28;20040;-62
2022/08/09 04:34:13;;;;;;;0.85;0.63;;;26.30;52.20;;;;;;5045853;28;20501;-62
2022/08/09 04:36:45;;;;;;;0.70;0.70;;;26.30;52.20;;;;;;5046393;28;20049;-62
2022/08/09 04:39:16;;;;;;;0.70;0.52;;;26.40;52.20;;;;;;5043486;28;20095;-62
2022/08/09 04:41:44;;;;;;;2.83;0.85;;;26.30;52.10;;;;;;5048275;28;20456;-62
2022/08/09 04:44:11;;;;;;;2.38;1.15;;;26.40;52.10;;;;;;5048502;28;20056;-62
2022/08/09 04:46:40;;;;;;;1.00;1.00;;;26.40;52.10;;;;;;5046889;28;20084;-61
2022/08/09 04:49:37;;;;;;;2.17;0.95;;;26.40;52.10;;;;;;5042577;28;20136;-61
2022/08/09 04:52:23;;;;;;;0.90;0.90;;;26.40;52.10;;;;;;5042475;28;20040;-60
2022/08/09 04:55:00;;;;;;;1.25;0.73;;;26.40;52.00;;;;;;5046546;28;20055;-61
2022/08/09 04:57:29;;;;;;;0.93;0.80;;;26.40;52.00;;;;;;5048291;28;20048;-62
2022/08/09 05:00:17;;;;;;;1.33;1.05;;;26.50;52.10;;;;;;5047845;28;20049;-61
2022/08/09 05:02:47;;;;;;;0.80;0.80;;;26.50;52.00;;;;;;5047662;28;20135;-61
2022/08/09 05:05:18;;;;;;;0.95;0.85;;;26.50;52.00;;;;;;5046668;28;20448;-61
2022/08/09 05:08:05;;;;;;;1.20;1.10;;;26.50;51.90;;;;;;5041964;28;20409;-61
2022/08/09 05:10:33;;;;;;;0.77;0.77;;;26.50;51.80;;;;;;5038226;28;20098;-61
2022/08/09 05:13:02;;;;;;;0.82;0.82;;;26.40;51.80;;;;;;5043637;28;20049;-61
2022/08/09 05:15:30;;;;;;;0.70;0.70;;;26.30;51.90;;;;;;5044928;28;20049;-61
2022/08/09 05:18:09;;;;;;;0.95;0.95;;;26.10;52.10;;;;;;5039154;28;20080;-61
2022/08/09 05:20:56;;;;;;;0.93;0.88;;;26.00;52.50;;;;;;5032636;28;20087;-61
2022/08/09 05:23:24;;;;;;;0.90;0.90;;;25.70;52.50;;;;;;5040369;28;20498;-61
2022/08/09 05:26:12;;;;;;;1.52;1.25;;;25.40;52.00;;;;;;5036357;28;22645;-63
2022/08/09 05:28:59;;;;;;;3.28;1.00;;;25.10;51.50;;;;;;5046107;28;20143;-63
2022/08/09 05:31:28;;;;;;;1.00;0.90;;;24.70;51.10;;;;;;5035384;28;20069;-62
2022/08/09 05:34:16;;;;;;;1.00;1.00;;;24.30;50.70;;;;;;5036575;28;20052;-63
2022/08/09 05:36:44;;;;;;;1.30;1.00;;;23.90;50.60;;;;;;5031783;28;20408;-64
2022/08/09 05:39:14;;;;;;;1.00;1.00;;;23.60;50.40;;;;;;5044747;28;20092;-62
2022/08/09 05:41:54;;;;;;;1.15;1.08;;;23.30;50.60;;;;;;5030608;28;20080;-62
2022/08/09 05:44:22;;;;;;;2.13;1.70;;;22.90;50.60;;;;;;5032189;28;20041;-62
2022/08/09 05:46:59;;;;;;;2.65;1.63;;;22.60;50.70;;;;;;5041762;28;20056;-62
2022/08/09 05:49:26;;;;;;;1.63;1.00;;;22.20;50.60;;;;;;5042900;28;20103;-62
2022/08/09 05:52:13;;;;;;;1.60;1.50;;;22.00;51.50;;;;;;5042886;28;20135;-62
2022/08/09 05:54:41;;;;;;;2.53;1.67;;;21.70;52.00;;;;;;5041615;28;20102;-62
2022/08/09 05:57:10;;;;;;;2.53;1.52;;;21.50;52.10;;;;;;5042447;28;20398;-61
2022/08/09 05:59:40;;;;;;;3.13;1.60;;;21.30;52.60;;;;;;5039328;28;20048;-62
2022/08/09 06:02:08;;;;;;;1.70;1.60;;;21.10;52.90;;;;;;5041679;28;20059;-61
2022/08/09 06:04:35;;;;;;;3.00;1.65;;;21.00;54.10;;;;;;5040057;28;20099;-61
2022/08/09 06:07:10;;;;;;;1.85;1.65;;;20.90;54.20;;;;;;5044914;28;20053;-62
2022/08/09 06:09:49;;;;;;;2.78;1.55;;;20.80;53.80;;;;;;5043500;28;20076;-62
2022/08/09 06:12:29;;;;;;;3.00;2.35;;;20.70;53.70;;;;;;5043173;28;21145;-62
2022/08/09 06:14:57;;;;;;;7.65;2.15;;;20.50;53.80;;;;;;5040699;28;20037;-63
2022/08/09 06:17:28;;;;;;;3.35;1.92;;;20.40;54.30;;;;;;5039070;28;20045;-62
2022/08/09 06:20:05;;;;;;;2.15;1.95;;;20.30;54.70;;;;;;5039917;28;20064;-62
2022/08/09 06:22:33;;;;;;;7.35;1.88;;;20.20;55.00;;;;;;5044495;28;20095;-62
2022/08/09 06:25:02;;;;;;;5.90;2.40;;;20.10;55.20;;;;;;5040279;28;20052;-62
2022/08/09 06:27:34;;;;;;;4.97;1.88;;;20.10;56.50;;;;;;5040764;28;20127;-61
2022/08/09 06:30:14;;;;;;;2.33;2.13;;;20.10;56.60;;;;;;5039670;28;20132;-62
2022/08/09 06:32:43;;;;;;;2.10;2.00;;;20.00;56.10;;;;;;5048754;28;20470;-63
2022/08/09 06:35:31;;;;;;;2.25;1.83;;;20.10;55.40;;;;;;5041638;28;20144;-62
2022/08/09 06:38:18;;;;;;;4.38;1.88;;;20.00;54.90;;;;;;5043993;28;20044;-61
2022/08/09 06:40:57;;;;;;;2.80;2.30;;;20.00;54.80;;;;;;5040728;28;20465;-61
2022/08/09 06:43:26;;;;;;;2.47;2.10;;;20.00;55.10;;;;;;5038631;28;20056;-61
2022/08/09 06:46:01;;;;;;;1.92;1.63;;;19.90;55.50;;;;;;5036270;28;20052;-61
2022/08/09 06:48:34;;;;;;;2.17;1.80;;;19.90;55.00;;;;;;5043210;28;20052;-61
2022/08/09 06:51:01;;;;;;;1.65;1.55;;;19.80;55.20;;;;;;5038327;28;20123;-61
2022/08/09 06:53:31;;;;;;;3.67;2.00;;;19.80;54.50;;;;;;5044077;28;20125;-61
2022/08/09 06:56:06;;;;;;;1.85;1.70;;;19.70;55.20;;;;;;5037507;28;20047;-62
2022/08/09 06:58:36;;;;;;;2.55;1.90;;;19.70;54.90;;;;;;5040540;28;20053;-60
2022/08/09 07:01:23;;;;;;;3.30;1.92;;;19.60;55.40;;;;;;5042066;28;20060;-60
2022/08/09 07:04:10;;;;;;;1.65;1.55;;;19.50;55.80;;;;;;5041992;28;20596;-60
2022/08/09 07:06:46;;;;;;;2.13;1.73;;;19.50;55.70;;;;;;5037963;28;20048;-61
2022/08/09 07:09:19;;;;;;;2.42;2.03;;;19.40;56.00;;;;;;5040178;28;20053;-60
2022/08/09 07:12:06;;;;;;;1.85;1.75;;;19.40;56.50;;;;;;5042401;28;20075;-61
2022/08/09 07:14:43;;;;;;;1.80;1.70;;;19.40;56.00;;;;;;5038656;28;20560;-60
2022/08/09 07:17:10;;;;;;;2.15;1.95;;;19.40;56.20;;;;;;5036484;28;20041;-60
2022/08/09 07:19:37;;;;;;;2.60;1.90;;;19.40;56.40;;;;;;5032738;28;20539;-60
2022/08/09 07:22:06;;;;;;;2.55;1.90;;;19.30;56.00;;;;;;5037031;28;20846;-60
2022/08/09 07:24:36;;;;;;;1.77;1.67;;;19.30;56.10;;;;;;5035790;28;20656;-60
2022/08/09 07:27:11;;;;;;;4.00;2.28;;;19.30;55.80;;;;;;5042201;28;20095;-60
2022/08/09 07:29:59;;;;;;;2.80;1.70;;;19.20;56.00;;;;;;5043090;28;20123;-61
2022/08/09 07:32:27;;;;;;;2.47;1.85;;;19.20;55.90;;;;;;5045304;28;20124;-60
2022/08/09 07:35:04;;;;;;;2.60;1.77;;;19.20;56.40;;;;;;5037180;28;20048;-60
2022/08/09 07:37:41;;;;;;;2.78;2.10;;;19.20;56.00;;;;;;5039390;28;20053;-61
2022/08/09 07:40:14;;;;;;;3.45;1.80;;;19.10;56.30;;;;;;5035929;28;20045;-60
2022/08/09 07:42:48;;;;;;;2.25;2.05;;;19.10;56.60;;;;;;5040424;28;20412;-60
2022/08/09 07:45:16;;;;;;;3.10;1.77;;;19.10;56.60;;;;;;5040684;28;20053;-61
2022/08/09 07:48:04;;;;;;;3.78;2.08;;;19.10;56.80;;;;;;5040061;28;20484;-62
2022/08/09 07:50:32;;;;;;;2.17;1.98;;;19.10;57.00;;;;;;5033147;28;20080;-61
2022/08/09 07:53:03;;;;;;;;;;;19.00;57.10;;;;;;5035361;28;20166;-62
2022/08/09 07:55:31;;;;;;;4.32;2.08;;;19.00;57.20;;;;;;5037647;28;19935;-61
2022/08/09 07:58:19;;;;;;;2.33;2.13;;;19.10;58.20;;;;;;5041340;28;20593;-61
2022/08/09 08:00:52;;;;;;;2.10;1.88;;;19.10;58.30;;;;;;5039105;28;20069;-61
2022/08/09 08:03:32;;;;;;;2.42;2.00;;;19.20;57.70;;;;;;5038267;28;20052;-61
2022/08/09 08:06:03;;;;;;;;;;;19.20;57.50;;;;;;5041606;28;20074;-61
2022/08/09 08:08:31;;;;;;;2.67;2.03;;;19.20;57.40;;;;;;5038951;28;19920;-62
2022/08/09 08:11:18;;;;;;;2.63;2.42;;;19.20;57.80;;;;;;5041291;28;20056;-60
2022/08/09 08:14:05;;;;;;;2.03;1.88;;;19.20;57.70;;;;;;5044479;28;20080;-60
2022/08/09 08:16:34;;;;;;;3.50;2.30;;;19.20;58.00;;;;;;5038585;28;20466;-60
2022/08/09 08:19:06;;;;;;;3.88;1.90;;;19.20;58.20;;;;;;5041827;28;20506;-61
2022/08/09 08:21:33;;;;;;;3.08;1.83;;;19.20;58.00;;;;;;5044407;28;20602;-61
2022/08/09 08:24:05;;;;;;;2.22;2.05;;;19.20;58.00;;;;;;5039762;28;20164;-61
2022/08/09 08:26:42;;;;;;;2.72;1.80;;;19.20;58.20;;;;;;5041902;28;20048;-62
2022/08/09 08:29:26;;;;;;;1.52;1.42;;;19.20;58.20;;;;;;5042519;28;20067;-61
2022/08/09 08:32:05;;;;;;;3.78;2.00;;;19.20;58.30;;;;;;5038331;28;20059;-62
2022/08/09 08:34:33;;;;;;;5.10;2.08;;;19.30;58.60;;;;;;5037537;28;20052;-62
2022/08/09 08:37:03;;;;;;;1.90;1.80;;;19.30;58.40;;;;;;5039552;28;20135;-62
2022/08/09 08:39:32;;;;;;;2.75;2.05;;;19.30;58.40;;;;;;5035983;28;20124;-62
2022/08/09 08:42:10;;;;;;;2.78;2.00;;;19.30;58.30;;;;;;5043739;28;20049;-64
2022/08/09 08:44:37;;;;;;;2.00;1.77;;;19.40;58.60;;;;;;5035151;28;20452;-64
2022/08/09 08:47:06;;;;;;;4.40;2.70;;;19.40;59.00;;;;;;5037803;28;20045;-62
2022/08/09 08:49:40;;;;;;;3.38;2.72;;;19.40;59.30;;;;;;5040948;28;20517;-62
2022/08/09 08:52:17;;;;;;;3.05;2.28;;;19.50;59.20;;;;;;5041150;28;20060;-61
2022/08/09 08:55:05;;;;;;;2.47;2.22;;;19.50;59.30;;;;;;5039514;28;20152;-62
2022/08/09 08:57:34;;;;;;;3.50;2.75;;;19.60;59.40;;;;;;5040564;28;20073;-61
2022/08/09 09:00:05;;;;;;;;;;;19.70;58.80;;;;;;5037778;28;20053;-61
2022/08/09 09:02:44;;;;;;;4.45;2.38;;;19.70;58.30;;;;;;5054305;28;19955;-62
2022/08/09 09:05:23;;;;;;;2.38;2.17;;;19.70;58.60;;;;;;5035639;28;20484;-60
2022/08/09 09:08:12;;;;;;;2.60;2.22;;;19.80;58.30;;;;;;5026560;28;20049;-61
2022/08/09 09:11:03;;;;;;;2.35;2.08;;;19.80;58.40;;;;;;5040130;28;20049;-61
2022/08/09 09:13:37;;;;;;;2.08;1.88;;;19.80;58.20;;;;;;5037646;28;20128;-60
2022/08/09 09:16:29;;;;;;;2.67;2.15;;;19.90;58.20;;;;;;5038160;28;20056;-60
2022/08/09 09:19:03;;;;;;;4.82;2.30;;;19.90;58.10;;;;;;5036099;28;20038;-60
2022/08/09 09:21:59;;;;;;;2.50;2.05;;;19.90;58.00;;;;;;5041717;28;20400;-61
2022/08/09 09:24:39;;;;;;;4.55;1.98;;;19.90;57.80;;;;;;5034730;28;20628;-61
2022/08/09 09:27:12;;;;;;;3.63;2.10;;;19.90;57.90;;;;;;5032355;28;20045;-61
2022/08/09 09:30:11;;;;;;;1.92;1.83;;;19.90;58.00;;;;;;5040543;28;20143;-61
2022/08/09 09:33:04;;;;;;;2.38;2.17;;;19.90;57.70;;;;;;5039596;28;20049;-60
2022/08/09 09:35:55;;;;;;;2.63;2.00;;;19.90;58.00;;;;;;5041265;28;20064;-62
2022/08/09 09:38:51;;;;;;;4.07;2.08;;;19.90;57.70;;;;;;5021190;28;20045;-60
2022/08/09 09:41:29;;;;;;;1.92;1.83;;;19.90;58.10;;;;;;5043549;28;20103;-60
2022/08/09 09:44:03;;;;;;;2.05;1.70;;;19.90;57.80;;;;;;5044911;28;20466;-60
2022/08/09 09:46:44;;;;;;;2.13;1.83;;;20.00;58.00;;;;;;5043452;28;20060;-60
2022/08/09 09:49:20;;;;;;;2.28;1.83;;;20.00;57.80;;;;;;5039086;28;20138;-60
2022/08/09 09:52:09;;;;;;;1.80;1.70;;;20.00;57.60;;;;;;5043267;28;20057;-60
2022/08/09 09:55:06;;;;;;;2.75;1.92;;;20.10;57.70;;;;;;5045125;28;20311;-60
2022/08/09 09:58:02;;;;;;;5.22;1.88;;;20.10;57.40;;;;;;5036083;28;20045;-61
2022/08/09 10:00:56;;;;;;;3.20;1.95;;;20.20;57.50;;;;;;5044710;28;20053;-60
2022/08/09 10:03:43;;;;;;;2.67;2.15;;;20.20;57.30;;;;;;5039415;28;20501;-60
2022/08/09 10:06:24;;;;;;;3.08;2.30;;;20.20;57.30;;;;;;5036880;28;20084;-60
2022/08/09 10:08:59;;;;;;;2.20;2.00;;;20.20;57.40;;;;;;5039696;28;20449;-60
2022/08/09 10:11:31;;;;;;;2.33;1.70;;;20.20;57.30;;;;;;5040110;28;20512;-60
2022/08/09 10:14:24;;;;;;;2.10;1.95;;;20.30;58.00;;;;;;5041869;28;20051;-60
2022/08/09 10:16:58;;;;;;;2.47;1.83;;;20.30;57.60;;;;;;5037267;28;20059;-60
2022/08/09 10:19:46;;;;;;;3.17;1.73;;;20.30;57.50;;;;;;5041552;28;20045;-60
2022/08/09 10:22:31;;;;;;;2.65;1.73;;;20.30;58.00;;;;;;5045564;28;20055;-60
2022/08/09 10:25:03;;;;;;;2.03;1.83;;;20.40;57.40;;;;;;5047277;28;20374;-60
2022/08/09 10:27:40;;;;;;;2.10;2.00;;;20.40;57.40;;;;;;5044376;28;20066;-61
2022/08/09 10:30:24;;;;;;;1.90;1.80;;;20.40;57.00;;;;;;5041854;28;20067;-60
2022/08/09 10:33:12;;;;;;;2.92;1.90;;;20.50;57.20;;;;;;5040464;28;20077;-60
2022/08/09 10:36:00;;;;;;;3.20;1.90;;;20.50;57.30;;;;;;5042012;28;20102;-60
2022/08/09 10:38:29;;;;;;;4.60;2.33;;;20.50;57.30;;;;;;5039121;28;20537;-60
2022/08/09 10:41:17;;;;;;;2.10;2.00;;;20.60;57.40;;;;;;5043843;28;20048;-60
2022/08/09 10:43:48;;;;;;;5.70;2.47;;;20.60;57.50;;;;;;5044046;28;20495;-60
2022/08/09 10:47:07;;;;;;;3.33;1.90;;;20.60;57.40;;;;;;5043897;28;20061;-60
2022/08/09 10:50:27;;;;;;;2.63;2.03;;;20.70;57.20;;;;;;5042028;28;20053;-60
2022/08/09 10:53:26;;;;;;;1.98;1.88;;;20.80;57.30;;;;;;5040504;28;20049;-61
2022/08/09 10:56:16;;;;;;;4.30;2.05;;;20.80;57.10;;;;;;5040799;28;20718;-60
2022/08/09 10:58:50;;;;;;;2.72;1.92;;;20.90;57.10;;;;;;5037926;28;20092;-59
2022/08/09 11:01:38;;;;;;;3.63;1.92;;;20.90;56.90;;;;;;5036163;28;20107;-60
2022/08/09 11:04:27;;;;;;;2.53;2.17;;;20.90;56.60;;;;;;5042879;28;20048;-60
2022/08/09 11:07:24;;;;;;;3.65;1.92;;;20.90;57.30;;;;;;5043781;28;20512;-60
2022/08/09 11:09:52;;;;;;;2.20;2.00;;;20.90;56.50;;;;;;5038885;28;20112;-60
2022/08/09 11:12:27;;;;;;;1.85;1.75;;;20.90;56.20;;;;;;5041204;28;20060;-60
2022/08/09 11:15:00;;;;;;;1.92;1.80;;;20.90;56.60;;;;;;5037838;28;20127;-60
2022/08/09 11:17:44;;;;;;;6.43;1.90;;;20.80;56.40;;;;;;5037966;28;20135;-60
2022/08/09 11:20:12;;;;;;;1.75;1.65;;;20.80;56.40;;;;;;5039075;28;20053;-60
2022/08/09 11:22:57;;;;;;;2.20;2.00;;;20.80;56.80;;;;;;5041677;28;20049;-59
2022/08/09 11:25:39;;;;;;;2.47;2.03;;;20.80;56.70;;;;;;5043916;28;20057;-59
2022/08/09 11:28:34;;;;;;;2.90;2.08;;;20.80;56.70;;;;;;5041141;28;20332;-59
2022/08/09 11:31:40;;;;;;;2.50;2.13;;;20.80;57.00;;;;;;5045683;28;20048;-59
2022/08/09 11:34:39;;;;;;;1.98;1.85;;;20.80;57.00;;;;;;5036396;28;20048;-59
2022/08/09 11:37:08;;;;;;;2.75;1.80;;;20.80;57.10;;;;;;5063764;28;20462;-59
2022/08/09 11:40:05;;;;;;;4.07;1.77;;;20.90;57.30;;;;;;5040886;28;20051;-59
2022/08/09 11:42:52;;;;;;;1.67;1.57;;;20.90;57.30;;;;;;5040341;28;20059;-59
2022/08/09 11:45:31;;;;;;;2.05;1.85;;;20.90;57.40;;;;;;5035648;28;20311;-59
2022/08/09 11:48:19;;;;;;;3.03;1.83;;;21.00;57.40;;;;;;5040518;28;20056;-60
2022/08/09 11:51:03;;;;;;;2.42;2.00;;;21.00;57.50;;;;;;5044340;28;20456;-61
2022/08/09 11:54:12;;;;;;;2.13;1.98;;;21.10;57.40;;;;;;5040714;28;20072;-59
2022/08/09 11:56:48;;;;;;;2.00;1.85;;;21.10;57.30;;;;;;5039881;28;20353;-59
2022/08/09 11:59:26;;;;;;;2.33;2.10;;;21.10;57.30;;;;;;5042040;28;20056;-60
2022/08/09 12:01:59;;;;;;;2.30;1.98;;;21.10;57.30;;;;;;5039424;28;20048;-59
2022/08/09 12:04:49;;;;;;;2.15;2.00;;;21.10;57.50;;;;;;5032119;28;20048;-61
2022/08/09 12:07:27;;;;;;;3.90;1.50;;;21.10;57.60;;;;;;5046685;28;20114;-61
2022/08/09 12:10:08;;;;;;;3.40;2.10;;;21.20;57.60;;;;;;5036198;28;20517;-60
2022/08/09 12:12:57;;;;;;;2.60;1.80;;;21.20;57.50;;;;;;5040022;28;20118;-62
2022/08/09 12:15:26;;;;;;;2.08;1.88;;;21.30;57.30;;;;;;5040117;28;20049;-61
2022/08/09 12:18:18;;;;;;;1.65;1.50;;;21.30;57.00;;;;;;5037519;28;20148;-60
2022/08/09 12:20:58;;;;;;;2.08;1.63;;;21.30;57.10;;;;;;5038410;28;20081;-60
2022/08/09 12:23:30;;;;;;;2.47;2.17;;;21.30;57.10;;;;;;5036336;28;20415;-60
2022/08/09 12:26:17;;;;;;;1.67;1.58;;;21.40;57.20;;;;;;5037267;28;20046;-60
2022/08/09 12:28:55;;;;;;;1.80;1.70;;;21.30;57.40;;;;;;5039056;28;20045;-61
2022/08/09 12:31:43;;;;;;;2.03;1.50;;;21.30;57.50;;;;;;5037678;28;20046;-61
2022/08/09 12:34:34;;;;;;;2.33;1.70;;;21.30;57.70;;;;;;5037684;28;20055;-60
2022/08/09 12:37:02;;;;;;;2.03;1.83;;;21.30;58.10;;;;;;5028382;28;20579;-60
2022/08/09 12:40:01;;;;;;;3.85;2.03;;;21.20;58.20;;;;;;5038166;28;20122;-61
2022/08/09 12:42:28;;;;;;;2.80;1.75;;;21.30;58.20;;;;;;5020438;28;20139;-60
2022/08/09 12:44:56;;;;;;;2.50;1.98;;;21.30;58.40;;;;;;5023418;28;20049;-61
2022/08/09 12:47:26;;;;;;;2.05;1.83;;;21.30;58.50;;;;;;5039513;28;20515;-59
2022/08/09 12:50:16;;;;;;;2.47;2.33;;;21.30;58.50;;;;;;5034271;28;20055;-59
2022/08/09 12:52:51;;;;;;;2.25;2.08;;;21.30;58.40;;;;;;5037381;28;20047;-60
2022/08/09 12:55:38;;;;;;;3.60;1.50;;;21.40;58.40;;;;;;5035862;28;20505;-60
2022/08/09 12:58:25;;;;;;;2.60;1.85;;;21.40;58.30;;;;;;5037063;28;20565;-61
2022/08/09 13:00:55;;;;;;;2.88;1.77;;;21.40;58.10;;;;;;5034993;28;20041;-62
2022/08/09 13:03:32;;;;;;;1.83;1.65;;;21.40;58.10;;;;;;5036078;28;20045;-61
2022/08/09 13:06:31;;;;;;;3.17;1.80;;;21.40;58.10;;;;;;5034059;28;20057;-62
2022/08/09 13:09:08;;;;;;;2.63;1.95;;;21.40;57.90;;;;;;5032932;28;20102;-61
2022/08/09 13:11:41;;;;;;;2.47;2.28;;;21.40;57.90;;;;;;5040773;28;20045;-61
2022/08/09 13:14:12;;;;;;;1.73;1.63;;;21.50;57.90;;;;;;5044327;28;20045;-61
2022/08/09 13:17:01;;;;;;;3.35;2.25;;;21.50;58.80;;;;;;5034909;28;20052;-62
2022/08/09 13:19:35;;;;;;;1.88;1.73;;;21.50;58.30;;;;;;5036414;28;20049;-62
2022/08/09 13:22:25;;;;;;;1.60;1.50;;;21.40;58.10;;;;;;5037653;28;20172;-62
2022/08/09 13:25:12;;;;;;;4.13;2.17;;;21.50;58.10;;;;;;5037707;28;20091;-61
2022/08/09 13:27:42;;;;;;;2.13;1.92;;;21.50;58.10;;;;;;5034694;28;20057;-60
2022/08/09 13:30:23;;;;;;;2.92;2.03;;;21.50;58.20;;;;;;5032717;28;20053;-61
2022/08/09 13:33:20;;;;;;;2.05;1.83;;;21.50;58.10;;;;;;5038781;28;20127;-62
2022/08/09 13:35:48;;;;;;;2.38;1.90;;;21.60;58.10;;;;;;5031787;28;20044;-63
2022/08/09 13:38:36;;;;;;;1.85;1.73;;;21.60;58.20;;;;;;5039214;28;20044;-62
2022/08/09 13:41:24;;;;;;;2.40;2.20;;;21.60;58.20;;;;;;5035440;28;20141;-61
2022/08/09 13:44:11;;;;;;;2.05;1.75;;;21.60;58.10;;;;;;5037523;28;20418;-61
2022/08/09 13:46:43;;;;;;;1.83;1.73;;;21.60;58.10;;;;;;5033695;28;20076;-62